sensor_id;sensor_type;location;lat;lon;timestamp;P1;durP1;ratioP1;P2;durP2;ratioP2
26082;SDS011;13848;49.018;12.078;2023-04-07T00:02:23;12.55;;;5.68;;
26082;SDS011;13848;49.018;12.078;2023-04-07T00:04:49;11.00;;;5.90;;
26082;SDS011;13848;49.018;12.078;2023-04-07T00:07:16;10.50;;;5.82;;
26082;SDS011;13848;49.018;12.078;2023-04-07T00:09:42;8.55;;;5.57;;
26082;SDS011;13848;49.018;12.078;2023-04-07T00:12:08;9.48;;;5.40;;
26082;SDS011;13848;49.018;12.078;2023-04-07T00:14:34;10.50;;;5.93;;
26082;SDS011;13848;49.018;12.078;2023-04-07T00:17:00;10.02;;;5.90;;
26082;SDS011;13848;49.018;12.078;2023-04-07T00:19:26;13.32;;;5.90;;
26082;SDS011;13848;49.018;12.078;2023-04-07T00:21:52;11.75;;;6.15;;
26082;SDS011;13848;49.018;12.078;2023-04-07T00:24:19;10.98;;;6.28;;
26082;SDS011;13848;49.018;12.078;2023-04-07T00:26:45;13.80;;;6.22;;
26082;SDS011;13848;49.018;12.078;2023-04-07T00:29:11;7.18;;;5.35;;
26082;SDS011;13848;49.018;12.078;2023-04-07T00:31:37;10.00;;;5.60;;
26082;SDS011;13848;49.018;12.078;2023-04-07T00:34:03;10.98;;;5.72;;
26082;SDS011;13848;49.018;12.078;2023-04-07T00:36:29;12.88;;;6.13;;
26082;SDS011;13848;49.018;12.078;2023-04-07T00:38:54;11.27;;;5.88;;
26082;SDS011;13848;49.018;12.078;2023-04-07T00:41:22;9.43;;;5.40;;
26082;SDS011;13848;49.018;12.078;2023-04-07T00:43:48;11.23;;;6.10;;
26082;SDS011;13848;49.018;12.078;2023-04-07T00:46:14;9.70;;;5.53;;
26082;SDS011;13848;49.018;12.078;2023-04-07T00:48:40;10.45;;;5.85;;
26082;SDS011;13848;49.018;12.078;2023-04-07T00:51:06;9.90;;;5.75;;
26082;SDS011;13848;49.018;12.078;2023-04-07T00:53:32;9.68;;;5.63;;
26082;SDS011;13848;49.018;12.078;2023-04-07T00:55:58;10.05;;;6.00;;
26082;SDS011;13848;49.018;12.078;2023-04-07T00:58:25;7.78;;;5.53;;
26082;SDS011;13848;49.018;12.078;2023-04-07T01:00:56;7.95;;;5.10;;
26082;SDS011;13848;49.018;12.078;2023-04-07T01:03:29;8.95;;;5.88;;
26082;SDS011;13848;49.018;12.078;2023-04-07T01:05:58;8.40;;;5.35;;
26082;SDS011;13848;49.018;12.078;2023-04-07T01:08:29;9.88;;;5.65;;
26082;SDS011;13848;49.018;12.078;2023-04-07T01:10:59;10.07;;;5.75;;
26082;SDS011;13848;49.018;12.078;2023-04-07T01:13:32;10.30;;;5.35;;
26082;SDS011;13848;49.018;12.078;2023-04-07T01:16:02;12.60;;;5.93;;
26082;SDS011;13848;49.018;12.078;2023-04-07T01:18:34;8.73;;;5.85;;
26082;SDS011;13848;49.018;12.078;2023-04-07T01:21:02;11.07;;;6.10;;
26082;SDS011;13848;49.018;12.078;2023-04-07T01:23:36;10.23;;;6.00;;
26082;SDS011;13848;49.018;12.078;2023-04-07T01:26:17;8.85;;;5.85;;
26082;SDS011;13848;49.018;12.078;2023-04-07T01:28:56;11.60;;;5.60;;
26082;SDS011;13848;49.018;12.078;2023-04-07T01:31:44;8.88;;;6.05;;
26082;SDS011;13848;49.018;12.078;2023-04-07T01:34:13;11.13;;;5.53;;
26082;SDS011;13848;49.018;12.078;2023-04-07T01:36:39;11.90;;;5.82;;
26082;SDS011;13848;49.018;12.078;2023-04-07T01:39:06;9.55;;;5.90;;
26082;SDS011;13848;49.018;12.078;2023-04-07T01:41:33;9.88;;;6.03;;
26082;SDS011;13848;49.018;12.078;2023-04-07T01:44:01;9.68;;;5.97;;
26082;SDS011;13848;49.018;12.078;2023-04-07T01:46:28;12.98;;;6.50;;
26082;SDS011;13848;49.018;12.078;2023-04-07T01:48:55;8.30;;;5.68;;
26082;SDS011;13848;49.018;12.078;2023-04-07T01:51:22;8.48;;;5.72;;
26082;SDS011;13848;49.018;12.078;2023-04-07T01:53:48;9.98;;;5.78;;
26082;SDS011;13848;49.018;12.078;2023-04-07T01:56:15;10.25;;;5.45;;
26082;SDS011;13848;49.018;12.078;2023-04-07T01:58:41;8.63;;;5.93;;
26082;SDS011;13848;49.018;12.078;2023-04-07T02:01:07;9.35;;;5.97;;
26082;SDS011;13848;49.018;12.078;2023-04-07T02:03:35;9.90;;;5.82;;
26082;SDS011;13848;49.018;12.078;2023-04-07T02:06:07;8.90;;;5.43;;
26082;SDS011;13848;49.018;12.078;2023-04-07T02:08:36;9.43;;;5.60;;
26082;SDS011;13848;49.018;12.078;2023-04-07T02:11:07;10.38;;;5.80;;
26082;SDS011;13848;49.018;12.078;2023-04-07T02:13:35;8.25;;;5.57;;
26082;SDS011;13848;49.018;12.078;2023-04-07T02:16:02;12.35;;;6.28;;
26082;SDS011;13848;49.018;12.078;2023-04-07T02:18:30;9.27;;;5.50;;
26082;SDS011;13848;49.018;12.078;2023-04-07T02:20:58;11.20;;;5.70;;
26082;SDS011;13848;49.018;12.078;2023-04-07T02:23:25;10.65;;;6.32;;
26082;SDS011;13848;49.018;12.078;2023-04-07T02:25:54;10.75;;;5.85;;
26082;SDS011;13848;49.018;12.078;2023-04-07T02:28:21;11.02;;;6.20;;
26082;SDS011;13848;49.018;12.078;2023-04-07T02:30:47;10.73;;;6.03;;
26082;SDS011;13848;49.018;12.078;2023-04-07T02:33:13;10.63;;;5.90;;
26082;SDS011;13848;49.018;12.078;2023-04-07T02:35:39;11.48;;;6.22;;
26082;SDS011;13848;49.018;12.078;2023-04-07T02:38:06;11.85;;;6.05;;
26082;SDS011;13848;49.018;12.078;2023-04-07T02:40:32;9.80;;;5.88;;
26082;SDS011;13848;49.018;12.078;2023-04-07T02:42:58;11.77;;;6.30;;
26082;SDS011;13848;49.018;12.078;2023-04-07T02:45:24;11.30;;;5.75;;
26082;SDS011;13848;49.018;12.078;2023-04-07T02:47:49;10.02;;;6.35;;
26082;SDS011;13848;49.018;12.078;2023-04-07T02:50:15;11.02;;;6.38;;
26082;SDS011;13848;49.018;12.078;2023-04-07T02:52:41;9.45;;;5.75;;
26082;SDS011;13848;49.018;12.078;2023-04-07T02:55:09;9.98;;;6.20;;
26082;SDS011;13848;49.018;12.078;2023-04-07T02:57:35;9.48;;;5.95;;
26082;SDS011;13848;49.018;12.078;2023-04-07T03:00:01;8.93;;;5.75;;
26082;SDS011;13848;49.018;12.078;2023-04-07T03:02:27;10.50;;;5.82;;
26082;SDS011;13848;49.018;12.078;2023-04-07T03:04:53;10.65;;;5.90;;
26082;SDS011;13848;49.018;12.078;2023-04-07T03:07:19;12.98;;;5.55;;
26082;SDS011;13848;49.018;12.078;2023-04-07T03:09:45;9.82;;;6.13;;
26082;SDS011;13848;49.018;12.078;2023-04-07T03:12:12;9.02;;;5.47;;
26082;SDS011;13848;49.018;12.078;2023-04-07T03:14:38;8.68;;;5.63;;
26082;SDS011;13848;49.018;12.078;2023-04-07T03:17:04;11.00;;;5.82;;
26082;SDS011;13848;49.018;12.078;2023-04-07T03:19:30;9.07;;;5.78;;
26082;SDS011;13848;49.018;12.078;2023-04-07T03:21:56;8.82;;;5.78;;
26082;SDS011;13848;49.018;12.078;2023-04-07T03:24:22;9.77;;;5.88;;
26082;SDS011;13848;49.018;12.078;2023-04-07T03:26:47;11.43;;;6.07;;
26082;SDS011;13848;49.018;12.078;2023-04-07T03:29:15;11.45;;;6.32;;
26082;SDS011;13848;49.018;12.078;2023-04-07T03:31:41;9.45;;;6.30;;
26082;SDS011;13848;49.018;12.078;2023-04-07T03:34:07;9.88;;;6.00;;
26082;SDS011;13848;49.018;12.078;2023-04-07T03:36:32;11.27;;;6.38;;
26082;SDS011;13848;49.018;12.078;2023-04-07T03:38:58;8.88;;;5.88;;
26082;SDS011;13848;49.018;12.078;2023-04-07T03:41:24;11.55;;;5.95;;
26082;SDS011;13848;49.018;12.078;2023-04-07T03:43:50;9.75;;;6.28;;
26082;SDS011;13848;49.018;12.078;2023-04-07T03:46:19;10.77;;;6.57;;
26082;SDS011;13848;49.018;12.078;2023-04-07T03:48:45;13.10;;;6.13;;
26082;SDS011;13848;49.018;12.078;2023-04-07T03:51:11;12.02;;;6.30;;
26082;SDS011;13848;49.018;12.078;2023-04-07T03:53:37;12.48;;;6.25;;
26082;SDS011;13848;49.018;12.078;2023-04-07T03:56:03;10.30;;;5.97;;
26082;SDS011;13848;49.018;12.078;2023-04-07T03:58:29;12.32;;;6.18;;
26082;SDS011;13848;49.018;12.078;2023-04-07T04:00:55;11.52;;;6.47;;
26082;SDS011;13848;49.018;12.078;2023-04-07T04:03:22;10.80;;;6.40;;
26082;SDS011;13848;49.018;12.078;2023-04-07T04:05:48;8.35;;;5.60;;
26082;SDS011;13848;49.018;12.078;2023-04-07T04:08:14;8.95;;;5.95;;
26082;SDS011;13848;49.018;12.078;2023-04-07T04:10:40;9.82;;;5.90;;
26082;SDS011;13848;49.018;12.078;2023-04-07T04:13:06;8.55;;;5.90;;
26082;SDS011;13848;49.018;12.078;2023-04-07T04:15:32;13.40;;;6.47;;
26082;SDS011;13848;49.018;12.078;2023-04-07T04:17:58;10.98;;;6.00;;
26082;SDS011;13848;49.018;12.078;2023-04-07T04:20:25;11.35;;;6.72;;
26082;SDS011;13848;49.018;12.078;2023-04-07T04:22:51;9.43;;;6.15;;
26082;SDS011;13848;49.018;12.078;2023-04-07T04:25:17;10.85;;;6.57;;
26082;SDS011;13848;49.018;12.078;2023-04-07T04:27:43;11.30;;;6.07;;
26082;SDS011;13848;49.018;12.078;2023-04-07T04:30:09;13.63;;;6.05;;
26082;SDS011;13848;49.018;12.078;2023-04-07T04:32:35;12.65;;;6.13;;
26082;SDS011;13848;49.018;12.078;2023-04-07T04:35:01;11.82;;;6.18;;
26082;SDS011;13848;49.018;12.078;2023-04-07T04:37:28;11.10;;;5.90;;
26082;SDS011;13848;49.018;12.078;2023-04-07T04:39:54;12.10;;;6.63;;
26082;SDS011;13848;49.018;12.078;2023-04-07T04:42:20;12.60;;;6.28;;
26082;SDS011;13848;49.018;12.078;2023-04-07T04:44:46;9.82;;;6.60;;
26082;SDS011;13848;49.018;12.078;2023-04-07T04:47:12;9.38;;;6.10;;
26082;SDS011;13848;49.018;12.078;2023-04-07T04:49:38;10.30;;;6.22;;
26082;SDS011;13848;49.018;12.078;2023-04-07T04:52:04;11.18;;;6.38;;
26082;SDS011;13848;49.018;12.078;2023-04-07T04:54:31;11.00;;;6.28;;
26082;SDS011;13848;49.018;12.078;2023-04-07T04:56:57;13.40;;;6.75;;
26082;SDS011;13848;49.018;12.078;2023-04-07T04:59:24;10.75;;;6.75;;
26082;SDS011;13848;49.018;12.078;2023-04-07T05:01:50;14.02;;;6.57;;
26082;SDS011;13848;49.018;12.078;2023-04-07T05:04:16;11.43;;;6.30;;
26082;SDS011;13848;49.018;12.078;2023-04-07T05:06:42;11.18;;;6.85;;
26082;SDS011;13848;49.018;12.078;2023-04-07T05:09:08;13.10;;;6.28;;
26082;SDS011;13848;49.018;12.078;2023-04-07T05:11:36;12.15;;;6.80;;
26082;SDS011;13848;49.018;12.078;2023-04-07T05:14:02;10.27;;;6.70;;
26082;SDS011;13848;49.018;12.078;2023-04-07T05:16:27;10.75;;;6.45;;
26082;SDS011;13848;49.018;12.078;2023-04-07T05:18:53;10.82;;;6.57;;
26082;SDS011;13848;49.018;12.078;2023-04-07T05:21:19;11.98;;;7.13;;
26082;SDS011;13848;49.018;12.078;2023-04-07T05:23:45;14.07;;;7.30;;
26082;SDS011;13848;49.018;12.078;2023-04-07T05:26:11;11.73;;;7.40;;
26082;SDS011;13848;49.018;12.078;2023-04-07T05:28:38;11.75;;;7.07;;
26082;SDS011;13848;49.018;12.078;2023-04-07T05:31:04;12.65;;;7.13;;
26082;SDS011;13848;49.018;12.078;2023-04-07T05:33:30;13.60;;;7.93;;
26082;SDS011;13848;49.018;12.078;2023-04-07T05:35:56;11.20;;;7.80;;
26082;SDS011;13848;49.018;12.078;2023-04-07T05:38:22;14.30;;;7.40;;
26082;SDS011;13848;49.018;12.078;2023-04-07T05:40:48;13.80;;;8.05;;
26082;SDS011;13848;49.018;12.078;2023-04-07T05:43:14;11.65;;;6.97;;
26082;SDS011;13848;49.018;12.078;2023-04-07T05:45:41;10.98;;;7.20;;
26082;SDS011;13848;49.018;12.078;2023-04-07T05:48:07;12.13;;;7.55;;
26082;SDS011;13848;49.018;12.078;2023-04-07T05:50:33;11.35;;;7.30;;
26082;SDS011;13848;49.018;12.078;2023-04-07T05:52:59;13.43;;;7.35;;
26082;SDS011;13848;49.018;12.078;2023-04-07T05:55:25;12.20;;;6.82;;
26082;SDS011;13848;49.018;12.078;2023-04-07T05:57:51;9.70;;;7.00;;
26082;SDS011;13848;49.018;12.078;2023-04-07T06:00:17;10.32;;;6.88;;
26082;SDS011;13848;49.018;12.078;2023-04-07T06:02:44;11.70;;;7.70;;
26082;SDS011;13848;49.018;12.078;2023-04-07T06:05:10;10.77;;;6.43;;
26082;SDS011;13848;49.018;12.078;2023-04-07T06:07:36;11.48;;;7.60;;
26082;SDS011;13848;49.018;12.078;2023-04-07T06:10:03;9.60;;;7.03;;
26082;SDS011;13848;49.018;12.078;2023-04-07T06:12:29;9.82;;;6.70;;
26082;SDS011;13848;49.018;12.078;2023-04-07T06:14:55;10.23;;;6.88;;
26082;SDS011;13848;49.018;12.078;2023-04-07T06:17:21;9.55;;;6.25;;
26082;SDS011;13848;49.018;12.078;2023-04-07T06:19:48;11.20;;;6.80;;
26082;SDS011;13848;49.018;12.078;2023-04-07T06:22:14;10.68;;;6.57;;
26082;SDS011;13848;49.018;12.078;2023-04-07T06:24:40;9.98;;;6.50;;
26082;SDS011;13848;49.018;12.078;2023-04-07T06:27:06;10.10;;;7.10;;
26082;SDS011;13848;49.018;12.078;2023-04-07T06:29:32;11.48;;;6.75;;
26082;SDS011;13848;49.018;12.078;2023-04-07T06:31:58;14.43;;;7.55;;
26082;SDS011;13848;49.018;12.078;2023-04-07T06:34:24;12.82;;;6.90;;
26082;SDS011;13848;49.018;12.078;2023-04-07T06:36:52;13.48;;;6.60;;
26082;SDS011;13848;49.018;12.078;2023-04-07T06:39:18;10.55;;;6.53;;
26082;SDS011;13848;49.018;12.078;2023-04-07T06:41:44;11.65;;;6.80;;
26082;SDS011;13848;49.018;12.078;2023-04-07T06:44:10;11.95;;;7.55;;
26082;SDS011;13848;49.018;12.078;2023-04-07T06:46:36;11.93;;;7.18;;
26082;SDS011;13848;49.018;12.078;2023-04-07T06:49:02;13.73;;;6.78;;
26082;SDS011;13848;49.018;12.078;2023-04-07T06:51:27;11.02;;;7.13;;
26082;SDS011;13848;49.018;12.078;2023-04-07T06:53:55;11.50;;;7.15;;
26082;SDS011;13848;49.018;12.078;2023-04-07T06:56:22;14.00;;;6.72;;
26082;SDS011;13848;49.018;12.078;2023-04-07T06:58:48;10.20;;;6.82;;
26082;SDS011;13848;49.018;12.078;2023-04-07T07:01:14;10.63;;;6.97;;
26082;SDS011;13848;49.018;12.078;2023-04-07T07:03:40;13.70;;;7.20;;
26082;SDS011;13848;49.018;12.078;2023-04-07T07:06:06;12.00;;;7.15;;
26082;SDS011;13848;49.018;12.078;2023-04-07T07:08:32;13.38;;;6.95;;
26082;SDS011;13848;49.018;12.078;2023-04-07T07:10:59;11.60;;;7.22;;
26082;SDS011;13848;49.018;12.078;2023-04-07T07:13:25;11.57;;;7.18;;
26082;SDS011;13848;49.018;12.078;2023-04-07T07:15:51;15.65;;;7.20;;
26082;SDS011;13848;49.018;12.078;2023-04-07T07:18:18;11.68;;;6.93;;
26082;SDS011;13848;49.018;12.078;2023-04-07T07:20:44;10.95;;;7.38;;
26082;SDS011;13848;49.018;12.078;2023-04-07T07:23:10;11.18;;;6.90;;
26082;SDS011;13848;49.018;12.078;2023-04-07T07:25:36;12.05;;;7.65;;
26082;SDS011;13848;49.018;12.078;2023-04-07T07:28:03;11.20;;;7.18;;
26082;SDS011;13848;49.018;12.078;2023-04-07T07:30:29;15.13;;;8.02;;
26082;SDS011;13848;49.018;12.078;2023-04-07T07:32:56;11.02;;;7.13;;
26082;SDS011;13848;49.018;12.078;2023-04-07T07:35:22;9.85;;;7.10;;
26082;SDS011;13848;49.018;12.078;2023-04-07T07:37:48;10.02;;;7.05;;
26082;SDS011;13848;49.018;12.078;2023-04-07T07:40:14;11.88;;;7.13;;
26082;SDS011;13848;49.018;12.078;2023-04-07T07:42:40;12.18;;;7.30;;
26082;SDS011;13848;49.018;12.078;2023-04-07T07:45:08;15.45;;;7.82;;
26082;SDS011;13848;49.018;12.078;2023-04-07T07:47:34;10.52;;;7.38;;
26082;SDS011;13848;49.018;12.078;2023-04-07T07:50:00;10.90;;;7.03;;
26082;SDS011;13848;49.018;12.078;2023-04-07T07:52:26;12.07;;;7.72;;
26082;SDS011;13848;49.018;12.078;2023-04-07T07:54:52;12.98;;;7.53;;
26082;SDS011;13848;49.018;12.078;2023-04-07T07:57:18;12.10;;;8.27;;
26082;SDS011;13848;49.018;12.078;2023-04-07T07:59:44;11.30;;;7.93;;
26082;SDS011;13848;49.018;12.078;2023-04-07T08:02:11;12.20;;;8.00;;
26082;SDS011;13848;49.018;12.078;2023-04-07T08:04:37;16.23;;;7.78;;
26082;SDS011;13848;49.018;12.078;2023-04-07T08:07:03;12.30;;;7.95;;
26082;SDS011;13848;49.018;12.078;2023-04-07T08:09:29;10.48;;;6.95;;
26082;SDS011;13848;49.018;12.078;2023-04-07T08:11:55;11.43;;;7.38;;
26082;SDS011;13848;49.018;12.078;2023-04-07T08:14:21;13.05;;;7.97;;
26082;SDS011;13848;49.018;12.078;2023-04-07T08:16:47;12.45;;;7.63;;
26082;SDS011;13848;49.018;12.078;2023-04-07T08:19:14;9.93;;;6.80;;
26082;SDS011;13848;49.018;12.078;2023-04-07T08:21:40;11.35;;;7.07;;
26082;SDS011;13848;49.018;12.078;2023-04-07T08:24:07;9.90;;;7.00;;
26082;SDS011;13848;49.018;12.078;2023-04-07T08:26:34;17.98;;;10.30;;
26082;SDS011;13848;49.018;12.078;2023-04-07T08:29:00;11.82;;;7.43;;
26082;SDS011;13848;49.018;12.078;2023-04-07T08:31:26;11.88;;;7.50;;
26082;SDS011;13848;49.018;12.078;2023-04-07T08:33:52;11.73;;;7.70;;
26082;SDS011;13848;49.018;12.078;2023-04-07T08:36:19;10.75;;;7.05;;
26082;SDS011;13848;49.018;12.078;2023-04-07T08:38:45;10.20;;;6.97;;
26082;SDS011;13848;49.018;12.078;2023-04-07T08:41:11;11.68;;;8.30;;
26082;SDS011;13848;49.018;12.078;2023-04-07T08:43:41;11.27;;;8.30;;
26082;SDS011;13848;49.018;12.078;2023-04-07T08:46:08;9.45;;;7.20;;
26082;SDS011;13848;49.018;12.078;2023-04-07T08:48:35;10.43;;;7.53;;
26082;SDS011;13848;49.018;12.078;2023-04-07T08:51:03;12.00;;;7.63;;
26082;SDS011;13848;49.018;12.078;2023-04-07T08:53:33;9.85;;;7.32;;
26082;SDS011;13848;49.018;12.078;2023-04-07T08:56:05;11.27;;;7.30;;
26082;SDS011;13848;49.018;12.078;2023-04-07T08:58:32;10.98;;;7.50;;
26082;SDS011;13848;49.018;12.078;2023-04-07T09:00:59;10.27;;;7.13;;
26082;SDS011;13848;49.018;12.078;2023-04-07T09:03:25;11.88;;;7.78;;
26082;SDS011;13848;49.018;12.078;2023-04-07T09:05:52;11.82;;;7.18;;
26082;SDS011;13848;49.018;12.078;2023-04-07T09:08:18;10.85;;;7.93;;
26082;SDS011;13848;49.018;12.078;2023-04-07T09:10:45;11.18;;;7.65;;
26082;SDS011;13848;49.018;12.078;2023-04-07T09:13:11;12.98;;;8.13;;
26082;SDS011;13848;49.018;12.078;2023-04-07T09:15:37;14.02;;;7.95;;
26082;SDS011;13848;49.018;12.078;2023-04-07T09:18:03;12.68;;;8.48;;
26082;SDS011;13848;49.018;12.078;2023-04-07T09:23:26;13.80;;;8.68;;
26082;SDS011;13848;49.018;12.078;2023-04-07T09:25:58;11.68;;;7.38;;
26082;SDS011;13848;49.018;12.078;2023-04-07T09:28:36;11.85;;;7.93;;
26082;SDS011;13848;49.018;12.078;2023-04-07T09:31:05;12.60;;;8.43;;
26082;SDS011;13848;49.018;12.078;2023-04-07T09:33:32;10.93;;;8.20;;
26082;SDS011;13848;49.018;12.078;2023-04-07T09:35:58;11.38;;;8.32;;
26082;SDS011;13848;49.018;12.078;2023-04-07T09:38:31;12.30;;;8.68;;
26082;SDS011;13848;49.018;12.078;2023-04-07T09:41:05;13.52;;;8.85;;
26082;SDS011;13848;49.018;12.078;2023-04-07T09:43:31;12.55;;;8.32;;
26082;SDS011;13848;49.018;12.078;2023-04-07T09:46:05;11.18;;;8.35;;
26082;SDS011;13848;49.018;12.078;2023-04-07T09:48:32;12.15;;;8.20;;
26082;SDS011;13848;49.018;12.078;2023-04-07T09:51:03;13.93;;;8.52;;
26082;SDS011;13848;49.018;12.078;2023-04-07T09:53:36;14.57;;;8.77;;
26082;SDS011;13848;49.018;12.078;2023-04-07T09:56:08;14.98;;;9.15;;
26082;SDS011;13848;49.018;12.078;2023-04-07T09:58:36;13.40;;;8.50;;
26082;SDS011;13848;49.018;12.078;2023-04-07T10:01:03;14.52;;;8.88;;
26082;SDS011;13848;49.018;12.078;2023-04-07T10:03:29;13.07;;;8.65;;
26082;SDS011;13848;49.018;12.078;2023-04-07T10:05:58;12.60;;;9.25;;
26082;SDS011;13848;49.018;12.078;2023-04-07T10:08:24;17.13;;;8.50;;
26082;SDS011;13848;49.018;12.078;2023-04-07T10:10:51;13.02;;;8.93;;
26082;SDS011;13848;49.018;12.078;2023-04-07T10:13:18;12.00;;;8.73;;
26082;SDS011;13848;49.018;12.078;2023-04-07T10:15:45;13.60;;;8.65;;
26082;SDS011;13848;49.018;12.078;2023-04-07T10:18:13;19.75;;;9.10;;
26082;SDS011;13848;49.018;12.078;2023-04-07T10:20:39;12.52;;;9.02;;
26082;SDS011;13848;49.018;12.078;2023-04-07T10:23:07;12.75;;;9.02;;
26082;SDS011;13848;49.018;12.078;2023-04-07T10:25:40;14.95;;;9.50;;
26082;SDS011;13848;49.018;12.078;2023-04-07T10:28:08;13.13;;;8.63;;
26082;SDS011;13848;49.018;12.078;2023-04-07T10:30:38;12.18;;;9.13;;
26082;SDS011;13848;49.018;12.078;2023-04-07T10:33:05;14.75;;;9.15;;
26082;SDS011;13848;49.018;12.078;2023-04-07T10:35:53;15.75;;;9.13;;
26082;SDS011;13848;49.018;12.078;2023-04-07T10:38:28;13.18;;;8.80;;
26082;SDS011;13848;49.018;12.078;2023-04-07T10:40:54;22.42;;;9.52;;
26082;SDS011;13848;49.018;12.078;2023-04-07T10:43:35;15.77;;;9.05;;
26082;SDS011;13848;49.018;12.078;2023-04-07T10:46:03;12.35;;;9.07;;
26082;SDS011;13848;49.018;12.078;2023-04-07T10:48:29;12.75;;;8.75;;
26082;SDS011;13848;49.018;12.078;2023-04-07T10:51:15;13.77;;;8.95;;
26082;SDS011;13848;49.018;12.078;2023-04-07T10:59:40;12.35;;;8.20;;
26082;SDS011;13848;49.018;12.078;2023-04-07T11:04:57;13.48;;;8.23;;
26082;SDS011;13848;49.018;12.078;2023-04-07T11:10:14;15.23;;;8.63;;
26082;SDS011;13848;49.018;12.078;2023-04-07T11:12:41;13.00;;;8.73;;
26082;SDS011;13848;49.018;12.078;2023-04-07T11:15:17;13.10;;;7.78;;
26082;SDS011;13848;49.018;12.078;2023-04-07T11:17:45;15.30;;;9.35;;
26082;SDS011;13848;49.018;12.078;2023-04-07T11:20:11;14.82;;;8.68;;
26082;SDS011;13848;49.018;12.078;2023-04-07T11:22:37;11.98;;;7.82;;
26082;SDS011;13848;49.018;12.078;2023-04-07T11:25:04;11.75;;;8.25;;
26082;SDS011;13848;49.018;12.078;2023-04-07T11:27:45;11.98;;;7.97;;
26082;SDS011;13848;49.018;12.078;2023-04-07T11:30:11;10.27;;;7.68;;
26082;SDS011;13848;49.018;12.078;2023-04-07T11:32:38;12.63;;;8.32;;
26082;SDS011;13848;49.018;12.078;2023-04-07T11:35:06;10.25;;;7.65;;
26082;SDS011;13848;49.018;12.078;2023-04-07T11:37:32;10.60;;;7.30;;
26082;SDS011;13848;49.018;12.078;2023-04-07T11:39:58;11.38;;;7.65;;
26082;SDS011;13848;49.018;12.078;2023-04-07T11:42:30;9.82;;;6.82;;
26082;SDS011;13848;49.018;12.078;2023-04-07T11:44:57;13.98;;;8.82;;
26082;SDS011;13848;49.018;12.078;2023-04-07T11:47:32;12.82;;;8.13;;
26082;SDS011;13848;49.018;12.078;2023-04-07T11:49:59;10.25;;;7.45;;
26082;SDS011;13848;49.018;12.078;2023-04-07T11:52:26;12.05;;;8.40;;
26082;SDS011;13848;49.018;12.078;2023-04-07T11:54:52;10.63;;;7.45;;
26082;SDS011;13848;49.018;12.078;2023-04-07T11:57:23;12.68;;;8.50;;
26082;SDS011;13848;49.018;12.078;2023-04-07T11:59:49;11.68;;;8.07;;
26082;SDS011;13848;49.018;12.078;2023-04-07T12:02:29;11.25;;;8.10;;
26082;SDS011;13848;49.018;12.078;2023-04-07T12:04:55;11.65;;;7.97;;
26082;SDS011;13848;49.018;12.078;2023-04-07T12:07:21;11.80;;;8.18;;
26082;SDS011;13848;49.018;12.078;2023-04-07T12:09:48;11.45;;;8.30;;
26082;SDS011;13848;49.018;12.078;2023-04-07T12:12:14;14.77;;;8.77;;
26082;SDS011;13848;49.018;12.078;2023-04-07T12:14:50;11.38;;;8.57;;
26082;SDS011;13848;49.018;12.078;2023-04-07T12:17:19;12.52;;;8.52;;
26082;SDS011;13848;49.018;12.078;2023-04-07T12:19:45;11.98;;;8.70;;
26082;SDS011;13848;49.018;12.078;2023-04-07T12:22:11;15.48;;;8.50;;
26082;SDS011;13848;49.018;12.078;2023-04-07T12:24:37;11.70;;;8.30;;
26082;SDS011;13848;49.018;12.078;2023-04-07T12:27:04;14.52;;;8.18;;
26082;SDS011;13848;49.018;12.078;2023-04-07T12:29:30;18.13;;;7.97;;
26082;SDS011;13848;49.018;12.078;2023-04-07T12:31:56;10.27;;;7.75;;
26082;SDS011;13848;49.018;12.078;2023-04-07T12:34:22;10.52;;;7.55;;
26082;SDS011;13848;49.018;12.078;2023-04-07T12:36:48;14.27;;;8.38;;
26082;SDS011;13848;49.018;12.078;2023-04-07T12:39:14;12.55;;;7.93;;
26082;SDS011;13848;49.018;12.078;2023-04-07T12:41:41;11.55;;;8.25;;
26082;SDS011;13848;49.018;12.078;2023-04-07T12:44:08;10.85;;;8.25;;
26082;SDS011;13848;49.018;12.078;2023-04-07T12:46:34;10.57;;;7.68;;
26082;SDS011;13848;49.018;12.078;2023-04-07T12:49:00;10.70;;;7.97;;
26082;SDS011;13848;49.018;12.078;2023-04-07T12:51:26;11.88;;;7.80;;
26082;SDS011;13848;49.018;12.078;2023-04-07T12:53:52;11.40;;;7.88;;
26082;SDS011;13848;49.018;12.078;2023-04-07T12:56:18;12.60;;;7.72;;
26082;SDS011;13848;49.018;12.078;2023-04-07T12:58:44;9.48;;;7.03;;
26082;SDS011;13848;49.018;12.078;2023-04-07T13:01:11;23.05;;;15.63;;
26082;SDS011;13848;49.018;12.078;2023-04-07T13:03:37;36.97;;;22.77;;
26082;SDS011;13848;49.018;12.078;2023-04-07T13:06:03;14.05;;;9.38;;
26082;SDS011;13848;49.018;12.078;2023-04-07T13:08:30;17.73;;;11.68;;
26082;SDS011;13848;49.018;12.078;2023-04-07T13:10:56;11.70;;;7.70;;
26082;SDS011;13848;49.018;12.078;2023-04-07T13:13:22;26.55;;;18.00;;
26082;SDS011;13848;49.018;12.078;2023-04-07T13:15:48;30.40;;;17.77;;
26082;SDS011;13848;49.018;12.078;2023-04-07T13:18:16;20.88;;;11.02;;
26082;SDS011;13848;49.018;12.078;2023-04-07T13:20:42;13.70;;;9.23;;
26082;SDS011;13848;49.018;12.078;2023-04-07T13:23:08;16.83;;;11.02;;
26082;SDS011;13848;49.018;12.078;2023-04-07T13:25:34;11.25;;;8.43;;
26082;SDS011;13848;49.018;12.078;2023-04-07T13:28:00;11.15;;;7.10;;
26082;SDS011;13848;49.018;12.078;2023-04-07T13:30:26;11.68;;;7.38;;
26082;SDS011;13848;49.018;12.078;2023-04-07T13:32:52;9.63;;;6.88;;
26082;SDS011;13848;49.018;12.078;2023-04-07T13:35:19;11.07;;;7.55;;
26082;SDS011;13848;49.018;12.078;2023-04-07T13:37:45;9.45;;;6.82;;
26082;SDS011;13848;49.018;12.078;2023-04-07T13:40:11;9.25;;;6.70;;
26082;SDS011;13848;49.018;12.078;2023-04-07T13:42:37;13.18;;;7.00;;
26082;SDS011;13848;49.018;12.078;2023-04-07T13:45:03;8.95;;;6.60;;
26082;SDS011;13848;49.018;12.078;2023-04-07T13:47:30;8.95;;;6.75;;
26082;SDS011;13848;49.018;12.078;2023-04-07T13:49:56;9.98;;;6.47;;
26082;SDS011;13848;49.018;12.078;2023-04-07T13:52:23;24.25;;;15.00;;
26082;SDS011;13848;49.018;12.078;2023-04-07T13:54:49;18.13;;;10.35;;
26082;SDS011;13848;49.018;12.078;2023-04-07T13:57:15;14.93;;;10.05;;
26082;SDS011;13848;49.018;12.078;2023-04-07T13:59:41;11.85;;;8.32;;
26082;SDS011;13848;49.018;12.078;2023-04-07T14:02:07;8.88;;;6.25;;
26082;SDS011;13848;49.018;12.078;2023-04-07T14:04:33;10.02;;;6.97;;
26082;SDS011;13848;49.018;12.078;2023-04-07T14:06:59;13.63;;;6.15;;
26082;SDS011;13848;49.018;12.078;2023-04-07T14:09:26;24.23;;;15.45;;
26082;SDS011;13848;49.018;12.078;2023-04-07T14:11:52;9.98;;;5.85;;
26082;SDS011;13848;49.018;12.078;2023-04-07T14:14:18;9.07;;;5.80;;
26082;SDS011;13848;49.018;12.078;2023-04-07T14:16:44;10.52;;;6.38;;
26082;SDS011;13848;49.018;12.078;2023-04-07T14:19:10;8.32;;;5.78;;
26082;SDS011;13848;49.018;12.078;2023-04-07T14:21:36;11.35;;;8.05;;
26082;SDS011;13848;49.018;12.078;2023-04-07T14:24:02;14.38;;;9.55;;
26082;SDS011;13848;49.018;12.078;2023-04-07T14:26:29;13.13;;;7.45;;
26082;SDS011;13848;49.018;12.078;2023-04-07T14:28:55;10.32;;;6.70;;
26082;SDS011;13848;49.018;12.078;2023-04-07T14:31:21;8.55;;;5.97;;
26082;SDS011;13848;49.018;12.078;2023-04-07T14:33:47;7.55;;;5.68;;
26082;SDS011;13848;49.018;12.078;2023-04-07T14:36:14;9.25;;;6.68;;
26082;SDS011;13848;49.018;12.078;2023-04-07T14:38:40;8.85;;;6.63;;